Time;durP1;ratioP1;P1;durP2;ratioP2;P2;SDS_P1;SDS_P2;PMS_P1;PMS_P2;Temp;Humidity;BMP_temperature;BMP_pressure;BME280_temperature;BME280_humidity;BME280_pressure;Samples;Min_cycle;Max_cycle;Signal;HPM_P1;HPM_P2
2023/03/21 00:01:32;;;;;;;0.20;0.20;;;;;;;11.60;77.54;101699.78;5091399;28;20118;-87
2023/03/21 00:03:58;;;;;;;0.63;0.63;;;;;;;11.65;77.00;101700.59;5093758;28;20040;-87
2023/03/21 00:06:24;;;;;;;0.63;0.63;;;;;;;11.68;76.39;101693.50;5089098;28;20508;-86
2023/03/21 00:08:50;;;;;;;0.30;0.30;;;;;;;11.68;76.84;101689.06;5092104;28;20035;-85
2023/03/21 00:11:16;;;;;;;1.52;1.05;;;;;;;11.68;76.76;101688.19;5091713;28;20573;-86
2023/03/21 00:13:43;;;;;;;0.20;0.20;;;;;;;11.75;76.94;101685.44;5092618;28;20076;-86
2023/03/21 00:16:14;;;;;;;0.15;0.15;;;;;;;11.67;76.70;101687.31;5092458;28;20404;-86
2023/03/21 00:18:45;;;;;;;2.35;1.35;;;;;;;11.72;76.53;101680.16;5107027;28;20035;-85
2023/03/21 00:21:14;;;;;;;0.30;0.30;;;;;;;11.67;76.65;101682.00;5105776;28;20020;-86
2023/03/21 00:23:41;;;;;;;0.52;0.52;;;;;;;11.71;76.96;101680.19;5092917;28;20040;-86
2023/03/21 00:26:09;;;;;;;0.28;0.28;;;;;;;11.72;76.52;101679.28;5099857;28;20027;-86
2023/03/21 00:28:37;;;;;;;0.10;0.10;;;;;;;11.72;76.66;101673.97;5104105;27;20024;-87
2023/03/21 00:31:06;;;;;;;0.10;0.10;;;;;;;11.68;77.03;101677.59;5106426;28;20473;-86
2023/03/21 00:33:33;;;;;;;0.47;0.47;;;;;;;11.75;76.64;101668.63;5110120;28;20039;-85
2023/03/21 00:36:00;;;;;;;0.10;0.10;;;;;;;11.76;76.42;101675.69;5102109;28;20034;-86
2023/03/21 00:38:26;;;;;;;0.10;0.10;;;;;;;11.74;76.55;101672.16;5101870;28;20477;-86
2023/03/21 00:40:52;;;;;;;0.10;0.10;;;;;;;11.70;76.74;101673.13;5110236;28;20047;-87
2023/03/21 00:43:22;;;;;;;0.30;0.30;;;;;;;11.67;77.18;101673.16;5108431;28;20384;-86
2023/03/21 00:45:50;;;;;;;0.47;0.47;;;;;;;11.73;76.72;101667.78;5106194;28;20020;-86
2023/03/21 00:48:17;;;;;;;0.10;0.10;;;;;;;11.72;76.64;101663.38;5095176;28;20020;-87
2023/03/21 00:50:45;;;;;;;0.43;0.43;;;;;;;11.70;77.07;101659.84;5091774;28;20122;-86
2023/03/21 00:53:13;;;;;;;0.98;0.98;;;;;;;11.69;77.09;101658.97;5090656;28;20043;-86
2023/03/21 00:55:39;;;;;;;0.35;0.35;;;;;;;11.69;76.80;101663.38;5090967;28;20036;-86
2023/03/21 00:58:06;;;;;;;0.55;0.55;;;;;;;11.67;76.85;101657.25;5088337;28;20036;-86
2023/03/21 01:00:32;;;;;;;0.10;0.10;;;;;;;11.72;76.93;101652.75;5090081;28;20101;-86
2023/03/21 01:03:04;;;;;;;0.32;0.32;;;;;;;11.68;76.72;101651.91;5098451;28;20056;-87
2023/03/21 01:08:19;;;;;;;0.32;0.32;;;;;;;11.62;76.96;101639.56;5090361;28;20468;-85
2023/03/21 01:10:47;;;;;;;0.10;0.10;;;;;;;11.63;77.18;101637.81;5091940;28;20494;-85
2023/03/21 01:13:15;;;;;;;0.17;0.17;;;;;;;11.69;76.96;101645.69;5093385;28;20146;-85
2023/03/21 01:15:45;;;;;;;0.28;0.28;;;;;;;11.61;77.07;101637.84;5096572;28;20024;-85
2023/03/21 01:18:12;;;;;;;0.10;0.10;;;;;;;11.60;77.04;101633.41;5095211;28;20052;-86
2023/03/21 01:20:41;;;;;;;0.10;0.10;;;;;;;11.62;77.19;101626.28;5093748;28;20485;-86
2023/03/21 01:23:08;;;;;;;0.75;0.75;;;;;;;11.56;77.16;101623.72;5091336;28;20154;-85
2023/03/21 01:25:34;;;;;;;0.57;0.57;;;;;;;11.64;76.73;101627.16;5098872;28;20553;-85
2023/03/21 01:28:00;;;;;;;0.10;0.10;;;;;;;11.58;76.82;101621.06;5094193;28;20043;-85
2023/03/21 01:30:26;;;;;;;2.80;1.02;;;;;;;11.59;77.03;101615.72;5095254;28;20055;-85
2023/03/21 01:32:52;;;;;;;0.40;0.40;;;;;;;11.63;76.50;101620.09;5094801;28;20024;-85
2023/03/21 01:35:19;;;;;;;0.45;0.45;;;;;;;11.65;76.54;101609.44;5101348;28;20031;-84
2023/03/21 01:37:45;;;;;;;0.10;0.10;;;;;;;11.64;76.59;101605.06;5103407;28;20023;-85
2023/03/21 01:40:17;;;;;;;0.20;0.20;;;;;;;11.57;77.38;101611.34;5105642;28;20028;-85
2023/03/21 01:42:43;;;;;;;0.30;0.30;;;;;;;11.56;77.06;101607.78;5094533;28;20089;-85
2023/03/21 01:45:49;;;;;;;1.08;0.85;;;;;;;11.67;76.83;101601.50;5095334;28;20019;-86
2023/03/21 01:48:15;;;;;;;0.10;0.10;;;;;;;11.54;76.67;101603.41;5093575;28;20024;-86
2023/03/21 01:50:42;;;;;;;0.80;0.80;;;;;;;11.56;77.16;101606.91;5094861;28;20032;-84
2023/03/21 01:53:09;;;;;;;0.10;0.10;;;;;;;11.52;77.01;101608.72;5107915;28;20028;-85
2023/03/21 01:55:37;;;;;;;0.30;0.30;;;;;;;11.60;76.68;101611.28;5105187;28;20060;-84
2023/03/21 01:58:05;;;;;;;0.95;0.95;;;;;;;11.60;76.86;101596.25;5091296;28;20077;-85
2023/03/21 02:00:32;;;;;;;1.35;0.90;;;;;;;11.59;76.42;101602.47;5091048;28;20077;-85
2023/03/21 02:03:01;;;;;;;0.10;0.10;;;;;;;11.56;76.42;101599.81;5093628;28;20053;-85
2023/03/21 02:08:27;;;;;;;0.50;0.50;;;;;;;11.57;76.29;101598.06;5099476;27;20776;-85
2023/03/21 02:10:53;;;;;;;1.92;1.02;;;;;;;11.53;76.69;101591.91;5090165;28;20059;-85
2023/03/21 02:13:20;;;;;;;0.13;0.13;;;;;;;11.59;76.50;101589.19;5094409;28;20032;-85
2023/03/21 02:15:58;;;;;;;0.68;0.68;;;;;;;11.63;76.66;101588.25;5094823;28;20070;-85
2023/03/21 02:21:48;;;;;;;0.52;0.52;;;;;;;11.65;76.00;101583.81;5079246;27;20409;-85
2023/03/21 02:24:36;;;;;;;0.30;0.30;;;;;;;11.69;75.96;101583.75;5060785;28;20060;-84
2023/03/21 02:30:21;;;;;;;0.20;0.20;;;;;;;11.70;76.47;101575.78;5111225;27;20415;-86
2023/03/21 02:33:18;;;;;;;3.47;0.80;;;;;;;11.67;76.07;101574.94;5104706;28;20044;-85
2023/03/21 02:38:30;;;;;;;0.30;0.30;;;;;;;11.61;75.76;101567.94;5090425;27;1170020;-86
2023/03/21 02:41:13;;;;;;;0.10;0.10;;;;;;;11.64;75.83;101566.13;5127185;27;20448;-85
2023/03/21 02:43:51;;;;;;;0.10;0.10;;;;;;;11.64;76.38;101566.13;5129522;28;20438;-85
2023/03/21 02:49:06;;;;;;;0.13;0.13;;;;;;;11.54;76.28;101548.56;5073760;27;20781;-85
2023/03/21 02:51:33;;;;;;;0.32;0.32;;;;;;;11.53;76.70;101552.09;5067707;28;20029;-85
2023/03/21 02:54:06;;;;;;;1.08;0.75;;;;;;;11.57;76.79;101542.34;5068827;28;20029;-85
2023/03/21 02:56:35;;;;;;;0.20;0.20;;;;;;;11.56;76.27;101545.88;5066818;28;20111;-85
2023/03/21 02:59:04;;;;;;;1.17;1.17;;;;;;;11.52;76.52;101544.16;5060650;28;20047;-85
2023/03/21 03:01:31;;;;;;;0.10;0.10;;;;;;;11.54;77.01;101537.94;5067520;28;20027;-85
2023/03/21 03:03:57;;;;;;;2.67;1.45;;;;;;;11.55;76.61;101539.69;5068304;28;20042;-85
2023/03/21 03:06:28;;;;;;;0.35;0.35;;;;;;;11.52;76.98;101545.03;5066912;28;20036;-86
2023/03/21 03:11:41;;;;;;;1.00;1.00;;;;;;;11.49;76.67;101542.44;5101938;27;20432;-85
2023/03/21 03:14:39;;;;;;;0.40;0.40;;;;;;;11.58;76.85;101539.66;5109654;28;20024;-85
2023/03/21 03:19:59;;;;;;;1.00;1.00;;;;;;;11.46;76.15;101540.69;5107719;27;20408;-85
2023/03/21 03:22:41;;;;;;;0.63;0.63;;;;;;;11.47;76.41;101544.22;5115616;28;20035;-85
2023/03/21 03:25:12;;;;;;;0.20;0.20;;;;;;;11.42;77.07;101546.91;5115896;28;20039;-86
2023/03/21 03:27:42;;;;;;;0.80;0.73;;;;;;;11.50;76.36;101536.22;5112944;28;20030;-85
2023/03/21 03:30:11;;;;;;;0.35;0.35;;;;;;;11.46;77.17;101539.81;5123545;28;20039;-86
2023/03/21 03:32:43;;;;;;;0.73;0.73;;;;;;;11.46;76.25;101538.03;5122525;28;20134;-86
2023/03/21 03:35:13;;;;;;;0.10;0.10;;;;;;;11.45;76.63;101540.69;5116254;28;20028;-85
2023/03/21 03:37:41;;;;;;;0.10;0.10;;;;;;;11.46;76.64;101537.16;5120867;28;20036;-85
2023/03/21 03:42:51;;;;;;;0.10;0.10;;;;;;;11.53;75.97;101525.56;5109473;27;20450;-85
2023/03/21 03:45:19;;;;;;;0.10;0.10;;;;;;;11.47;75.93;101533.59;5107446;28;20032;-85
2023/03/21 03:47:53;;;;;;;1.95;0.98;;;;;;;11.51;76.35;101529.13;5103527;28;20402;-85
2023/03/21 03:53:27;;;;;;;0.10;0.10;;;;;;;11.50;76.43;101525.59;5090146;27;20405;-85
2023/03/21 03:55:55;;;;;;;0.10;0.10;;;;;;;11.55;75.51;101518.47;5068334;28;20123;-84
2023/03/21 03:58:23;;;;;;;1.90;0.70;;;;;;;11.52;75.50;101518.50;5075213;28;20024;-84
2023/03/21 04:00:51;;;;;;;0.10;0.10;;;;;;;11.47;75.78;101520.34;5083430;28;20029;-84
2023/03/21 04:03:17;;;;;;;0.28;0.28;;;;;;;11.54;76.20;101514.06;5071506;28;20040;-86
2023/03/21 04:05:45;;;;;;;0.20;0.20;;;;;;;11.55;75.64;101513.16;5079178;28;20020;-85
2023/03/21 04:08:12;;;;;;;0.10;0.10;;;;;;;11.52;75.63;101510.53;5069649;28;20111;-86
2023/03/21 04:10:39;;;;;;;0.22;0.22;;;;;;;11.49;75.47;101518.56;5071212;28;20490;-86
2023/03/21 04:13:05;;;;;;;0.10;0.10;;;;;;;11.54;75.22;101506.09;5069136;28;20078;-86
2023/03/21 04:15:32;;;;;;;0.10;0.10;;;;;;;11.49;75.31;101507.94;5071881;28;20074;-86
2023/03/21 04:17:58;;;;;;;1.85;1.30;;;;;;;11.48;75.29;101509.69;5069723;28;20404;-86
2023/03/21 04:20:24;;;;;;;0.20;0.20;;;;;;;11.51;75.09;101506.13;5074378;28;20027;-86
2023/03/21 04:22:51;;;;;;;0.20;0.20;;;;;;;11.52;74.97;101507.88;5076768;28;20077;-86
2023/03/21 04:25:17;;;;;;;1.45;0.70;;;;;;;11.54;75.01;101495.47;5070936;28;20029;-86
2023/03/21 04:27:45;;;;;;;0.73;0.73;;;;;;;11.54;75.36;101494.59;5075825;28;20028;-87
2023/03/21 04:30:12;;;;;;;0.50;0.50;;;;;;;11.55;75.38;101496.34;5067545;28;20493;-87
2023/03/21 04:32:38;;;;;;;0.10;0.10;;;;;;;11.49;74.75;101495.53;5070217;28;20025;-86
2023/03/21 04:35:07;;;;;;;2.20;2.05;;;;;;;11.56;75.45;101495.44;5068316;28;20540;-87
2023/03/21 04:37:34;;;;;;;0.10;0.10;;;;;;;11.54;75.42;101489.28;5072913;28;20161;-86
2023/03/21 04:40:05;;;;;;;0.10;0.10;;;;;;;11.58;75.25;101491.88;5072251;28;20028;-86
2023/03/21 04:42:33;;;;;;;0.32;0.32;;;;;;;11.59;75.18;101487.44;5070477;28;20056;-88
2023/03/21 04:44:59;;;;;;;0.13;0.13;;;;;;;11.60;74.89;101487.44;5066122;28;20031;-87
2023/03/21 04:47:25;;;;;;;0.10;0.10;;;;;;;11.59;75.23;101487.44;5068588;28;20037;-86
2023/03/21 04:49:52;;;;;;;0.20;0.20;;;;;;;11.58;75.02;101485.69;5073110;28;20396;-86
2023/03/21 04:52:19;;;;;;;0.30;0.30;;;;;;;11.61;74.95;101480.34;5067007;28;20025;-86
2023/03/21 04:54:45;;;;;;;0.40;0.40;;;;;;;11.60;75.25;101474.16;5068219;28;20060;-89
2023/03/21 04:57:11;;;;;;;0.10;0.10;;;;;;;11.60;75.26;101474.16;5059336;28;20441;-87
2023/03/21 04:59:37;;;;;;;0.10;0.10;;;;;;;11.61;75.19;101472.38;5068891;28;20371;-87
2023/03/21 05:02:04;;;;;;;0.75;0.75;;;;;;;11.60;75.46;101479.47;5067161;28;20016;-86
2023/03/21 05:04:33;;;;;;;0.73;0.73;;;;;;;11.62;75.22;101475.00;5055259;28;20460;-86
2023/03/21 05:06:59;;;;;;;1.00;1.00;;;;;;;11.61;75.04;101470.63;5056914;28;20024;-87
2023/03/21 05:09:26;;;;;;;2.13;1.70;;;;;;;11.60;75.05;101473.28;5057143;28;20033;-87
2023/03/21 05:11:52;;;;;;;0.05;0.05;;;;;;;11.61;74.91;101470.63;5059479;28;20020;-85
2023/03/21 05:14:21;;;;;;;0.10;0.10;;;;;;;11.60;75.20;101466.19;5062340;28;20108;-86
2023/03/21 05:16:51;;;;;;;0.10;0.10;;;;;;;11.60;75.14;101467.97;5063456;28;20028;-86
2023/03/21 05:19:21;;;;;;;0.32;0.32;;;;;;;11.59;74.99;101467.09;5059473;28;20032;-85
2023/03/21 05:21:48;;;;;;;1.40;1.38;;;;;;;11.61;74.93;101470.63;5062191;28;20017;-86
2023/03/21 05:24:17;;;;;;;0.65;0.65;;;;;;;11.58;74.55;101465.34;5061910;28;20029;-86
2023/03/21 05:26:49;;;;;;;0.17;0.17;;;;;;;11.57;74.98;101460.91;5058476;28;20115;-86
2023/03/21 05:29:16;;;;;;;0.47;0.47;;;;;;;11.57;74.72;101463.56;5066590;28;20044;-87
2023/03/21 05:31:43;;;;;;;0.10;0.10;;;;;;;11.56;75.12;101456.50;5064654;28;20016;-86
2023/03/21 05:34:10;;;;;;;0.65;0.65;;;;;;;11.57;74.64;101457.41;5066720;28;20040;-86
2023/03/21 05:36:37;;;;;;;0.85;0.85;;;;;;;11.55;74.69;101465.41;5056388;28;20061;-86
2023/03/21 05:39:04;;;;;;;0.10;0.10;;;;;;;11.52;74.54;101468.06;5064197;28;20780;-85
2023/03/21 05:41:30;;;;;;;0.30;0.30;;;;;;;11.53;74.44;101464.53;5062725;28;20029;-84
2023/03/21 05:43:56;;;;;;;2.55;1.55;;;;;;;11.55;75.02;101465.41;5060419;28;20060;-85
2023/03/21 05:46:22;;;;;;;0.10;0.10;;;;;;;11.52;74.54;101464.56;5059626;28;20398;-84
2023/03/21 05:48:49;;;;;;;0.52;0.52;;;;;;;11.53;74.29;101461.88;5058189;28;20079;-84
2023/03/21 05:51:15;;;;;;;1.67;1.38;;;;;;;11.52;74.27;101464.56;5061421;28;20025;-84
2023/03/21 05:53:41;;;;;;;0.50;0.50;;;;;;;11.53;74.46;101467.19;5060662;28;20115;-84
2023/03/21 05:56:08;;;;;;;0.30;0.30;;;;;;;11.48;74.53;101464.59;5055427;28;20033;-84
2023/03/21 05:58:34;;;;;;;0.30;0.30;;;;;;;11.53;74.47;101461.00;5056219;28;20052;-84
2023/03/21 06:01:00;;;;;;;0.25;0.25;;;;;;;11.52;74.64;101465.41;5054017;28;20029;-84
2023/03/21 06:03:26;;;;;;;1.42;1.23;;;;;;;11.52;74.56;101460.13;5057139;28;20497;-86
2023/03/21 06:05:52;;;;;;;0.10;0.10;;;;;;;11.53;74.17;101466.31;5068402;28;20052;-85
2023/03/21 06:08:18;;;;;;;4.30;0.98;;;;;;;11.53;74.71;101467.19;5059297;28;20036;-85
2023/03/21 06:10:44;;;;;;;0.10;0.10;;;;;;;11.51;74.10;101468.09;5060297;28;20036;-85
2023/03/21 06:13:10;;;;;;;0.10;0.10;;;;;;;11.55;74.52;101470.69;5057288;28;20152;-85
2023/03/21 06:15:36;;;;;;;3.70;0.50;;;;;;;11.56;74.31;101466.25;5063529;28;20129;-83
2023/03/21 06:18:03;;;;;;;0.10;0.10;;;;;;;11.57;74.17;101468.03;5069981;28;20040;-84
2023/03/21 06:20:29;;;;;;;0.10;0.10;;;;;;;11.54;74.33;101478.66;5068964;28;20080;-84
2023/03/21 06:22:58;;;;;;;0.10;0.10;;;;;;;11.52;74.31;101469.88;5061910;28;20036;-85
2023/03/21 06:25:24;;;;;;;0.20;0.20;;;;;;;11.56;74.59;101464.47;5055942;28;20119;-83
2023/03/21 06:27:50;;;;;;;0.10;0.10;;;;;;;11.57;74.17;101474.19;5059252;28;20107;-85
2023/03/21 06:30:17;;;;;;;0.30;0.30;;;;;;;11.57;74.73;101474.19;5052445;28;20028;-86
2023/03/21 06:32:43;;;;;;;0.55;0.55;;;;;;;11.58;74.73;101469.78;5065005;28;20469;-85
2023/03/21 06:35:10;;;;;;;1.50;1.48;;;;;;;11.58;74.22;101472.44;5065660;28;20048;-84
2023/03/21 06:37:37;;;;;;;0.80;0.80;;;;;;;11.56;74.42;101466.25;5060835;28;20032;-84
2023/03/21 06:40:04;;;;;;;0.43;0.43;;;;;;;11.56;74.70;101471.56;5058498;28;20083;-83
2023/03/21 06:42:31;;;;;;;0.10;0.10;;;;;;;11.59;74.29;101472.41;5057782;28;20021;-83
2023/03/21 06:44:57;;;;;;;0.68;0.68;;;;;;;11.57;73.79;101466.22;5064271;28;20021;-84
2023/03/21 06:47:24;;;;;;;0.10;0.10;;;;;;;11.60;74.71;101466.19;5060343;28;20030;-85
2023/03/21 06:49:50;;;;;;;0.00;0.00;;;;;;;11.57;73.96;101474.19;5058681;28;20371;-85
2023/03/21 06:52:16;;;;;;;0.10;0.10;;;;;;;11.62;74.03;101477.66;5058978;28;20021;-87
2023/03/21 06:54:42;;;;;;;0.10;0.10;;;;;;;11.61;74.11;101483.88;5052663;28;20029;-85
2023/03/21 06:57:09;;;;;;;0.10;0.10;;;;;;;11.58;74.05;101477.75;5051018;28;20933;-87
2023/03/21 06:59:35;;;;;;;0.30;0.30;;;;;;;11.57;73.86;101468.88;5048818;28;20036;-85
2023/03/21 07:02:01;;;;;;;0.10;0.10;;;;;;;11.59;73.83;101463.53;5058534;28;20025;-83
2023/03/21 07:04:27;;;;;;;0.52;0.52;;;;;;;11.67;74.46;101455.50;5063510;28;20037;-82
2023/03/21 07:06:54;;;;;;;0.10;0.10;;;;;;;11.63;74.02;101452.88;5049364;28;20044;-84
2023/03/21 07:09:23;;;;;;;0.22;0.22;;;;;;;11.64;73.79;101449.31;5053144;28;20041;-85
2023/03/21 07:11:52;;;;;;;0.20;0.20;;;;;;;11.67;74.32;101444.88;5061690;28;20115;-85
2023/03/21 07:14:18;;;;;;;1.33;1.23;;;;;;;11.67;74.35;101453.72;5054703;28;20029;-85
2023/03/21 07:16:44;;;;;;;0.10;0.10;;;;;;;11.69;74.33;101435.09;5057924;28;20482;-84
2023/03/21 07:19:10;;;;;;;1.88;0.50;;;;;;;11.68;73.94;101436.03;5073757;28;20032;-85
2023/03/21 07:21:36;;;;;;;0.75;0.68;;;;;;;11.69;74.01;101436.00;5058890;28;20623;-84
2023/03/21 07:24:02;;;;;;;0.68;0.68;;;;;;;11.65;74.41;101424.53;5056792;28;20032;-85
2023/03/21 07:26:32;;;;;;;0.10;0.10;;;;;;;11.69;74.17;101425.38;5058954;28;20409;-85
2023/03/21 07:28:58;;;;;;;0.15;0.15;;;;;;;11.75;73.92;101429.69;5058048;28;20029;-85
2023/03/21 07:31:25;;;;;;;0.10;0.10;;;;;;;11.77;74.21;101430.56;5076014;28;20025;-86
2023/03/21 07:33:52;;;;;;;5.57;1.10;;;;;;;11.74;74.50;101433.25;5062490;28;20489;-86
2023/03/21 07:36:18;;;;;;;0.20;0.20;;;;;;;11.77;74.64;101438.53;5067320;28;20103;-86
2023/03/21 07:38:45;;;;;;;0.52;0.52;;;;;;;11.79;74.40;101437.59;5059344;28;20543;-86
2023/03/21 07:41:12;;;;;;;0.10;0.10;;;;;;;11.80;74.43;101435.81;5061753;28;20112;-86
2023/03/21 07:43:38;;;;;;;0.20;0.20;;;;;;;11.81;74.52;101427.84;5063771;28;20029;-86
2023/03/21 07:46:05;;;;;;;0.10;0.10;;;;;;;11.82;74.50;101424.28;5060309;28;20033;-87
2023/03/21 07:48:31;;;;;;;0.40;0.40;;;;;;;11.84;74.14;101433.97;5056505;28;20048;-87
2023/03/21 07:50:57;;;;;;;0.10;0.10;;;;;;;11.90;75.03;101429.47;5063003;28;20118;-87
2023/03/21 07:53:23;;;;;;;0.20;0.20;;;;;;;11.92;74.97;101432.09;5066581;28;20037;-86
2023/03/21 07:55:51;;;;;;;4.75;0.98;;;;;;;11.97;74.55;101424.97;5051908;28;20017;-86
2023/03/21 07:58:17;;;;;;;0.82;0.82;;;;;;;12.02;74.72;101422.22;5059421;28;20033;-86
2023/03/21 08:00:43;;;;;;;0.10;0.10;;;;;;;12.07;75.03;101428.34;5064152;28;20417;-86
2023/03/21 08:03:10;;;;;;;0.10;0.10;;;;;;;12.09;74.52;101423.88;5066783;28;20025;-85
2023/03/21 08:05:38;;;;;;;0.28;0.28;;;;;;;12.10;74.42;101420.31;5058144;28;20025;-86
2023/03/21 08:08:05;;;;;;;0.38;0.38;;;;;;;12.11;74.67;101412.34;5059406;28;20044;-86
2023/03/21 08:10:31;;;;;;;0.80;0.80;;;;;;;12.07;74.50;101415.91;5061746;28;20055;-86
2023/03/21 08:12:57;;;;;;;1.35;0.52;;;;;;;12.10;74.65;101409.69;5055831;28;20016;-86
2023/03/21 08:15:24;;;;;;;1.45;0.47;;;;;;;12.13;74.44;101413.16;5055603;28;20033;-86
2023/03/21 08:17:50;;;;;;;1.85;0.95;;;;;;;12.10;73.80;101410.56;5050564;28;20024;-87
2023/03/21 08:20:20;;;;;;;0.38;0.38;;;;;;;12.16;73.90;101408.72;5055116;28;20033;-88
2023/03/21 08:22:49;;;;;;;0.25;0.25;;;;;;;12.12;74.10;101402.56;5061006;28;20063;-87
2023/03/21 08:25:18;;;;;;;0.38;0.38;;;;;;;12.21;73.91;101396.22;5057182;28;20053;-86
2023/03/21 08:27:45;;;;;;;1.42;1.33;;;;;;;12.26;73.97;101389.94;5053463;28;20036;-87
2023/03/21 08:30:14;;;;;;;0.47;0.47;;;;;;;12.30;73.92;101393.41;5053443;28;20029;-84
2023/03/21 08:32:41;;;;;;;0.15;0.15;;;;;;;12.37;73.76;101386.19;5051609;28;20025;-85
2023/03/21 08:35:10;;;;;;;0.30;0.30;;;;;;;12.40;73.53;101387.00;5050532;28;20120;-85
2023/03/21 08:37:39;;;;;;;0.10;0.10;;;;;;;12.46;73.42;101380.69;5052695;28;20024;-86
2023/03/21 08:40:09;;;;;;;0.10;0.10;;;;;;;12.51;73.80;101373.53;5062223;28;20513;-85
2023/03/21 08:42:36;;;;;;;0.10;0.10;;;;;;;12.57;72.80;101377.81;5061526;28;20075;-86
2023/03/21 08:45:03;;;;;;;0.68;0.68;;;;;;;12.57;72.45;101373.41;5064303;28;20025;-86
2023/03/21 08:47:30;;;;;;;0.98;0.52;;;;;;;12.67;72.31;101370.53;5057828;28;20116;-86
2023/03/21 08:49:57;;;;;;;0.52;0.52;;;;;;;12.73;72.48;101359.78;5070965;28;20045;-85
2023/03/21 08:52:24;;;;;;;0.10;0.10;;;;;;;12.80;72.95;101364.09;5062228;28;20035;-85
2023/03/21 08:54:50;;;;;;;0.30;0.30;;;;;;;12.84;72.27;101360.44;5058247;28;20045;-84
2023/03/21 08:57:16;;;;;;;3.03;0.70;;;;;;;12.89;71.76;101363.88;5071771;28;20032;-86
2023/03/21 08:59:42;;;;;;;0.17;0.17;;;;;;;12.98;71.68;101361.94;5058950;28;20036;-85
2023/03/21 09:02:12;;;;;;;0.10;0.10;;;;;;;13.06;71.90;101365.28;5066984;28;20048;-86
2023/03/21 09:04:39;;;;;;;0.10;0.10;;;;;;;13.13;71.76;101358.91;5057659;28;20083;-86
2023/03/21 09:07:05;;;;;;;0.10;0.10;;;;;;;13.09;71.02;101352.78;5053576;28;20025;-86
2023/03/21 09:09:31;;;;;;;0.52;0.52;;;;;;;13.14;70.61;101346.50;5066210;28;20044;-85
2023/03/21 09:11:58;;;;;;;0.10;0.10;;;;;;;13.17;70.63;101339.34;5067794;28;20481;-86
2023/03/21 09:14:24;;;;;;;0.35;0.35;;;;;;;13.10;70.17;101345.69;5064643;28;20082;-86
2023/03/21 09:16:50;;;;;;;0.10;0.10;;;;;;;13.22;70.21;101339.22;5062757;28;20052;-86
2023/03/21 09:19:17;;;;;;;0.20;0.20;;;;;;;13.23;70.09;101343.63;5067482;28;20032;-86
2023/03/21 09:21:44;;;;;;;0.10;0.10;;;;;;;13.34;70.08;101335.41;5067128;28;20020;-86
2023/03/21 09:24:11;;;;;;;0.10;0.10;;;;;;;13.37;70.51;101327.31;5070949;28;20025;-87
2023/03/21 09:26:37;;;;;;;0.10;0.10;;;;;;;13.47;70.23;101328.03;5061951;28;20116;-85
2023/03/21 09:29:04;;;;;;;0.80;0.80;;;;;;;13.51;70.07;101325.25;5055230;28;20032;-86
2023/03/21 09:31:31;;;;;;;0.22;0.22;;;;;;;13.48;69.38;101330.63;5054102;28;20553;-86
2023/03/21 09:34:00;;;;;;;0.13;0.13;;;;;;;13.55;69.30;101332.25;5052897;28;20112;-87
2023/03/21 09:36:26;;;;;;;0.20;0.20;;;;;;;13.64;69.77;101330.28;5051181;28;20261;-87
2023/03/21 09:38:55;;;;;;;0.30;0.30;;;;;;;13.68;69.28;101330.16;5060220;28;20490;-86
2023/03/21 09:47:02;;;;;;;3.10;1.60;;;;;;;13.75;69.09;101330.88;5085472;27;20425;-88
2023/03/21 09:49:31;;;;;;;0.30;0.30;;;;;;;13.80;68.74;101331.63;5063318;28;20025;-88
2023/03/21 09:52:02;;;;;;;0.20;0.20;;;;;;;13.81;68.44;101333.38;5059835;28;20036;-86
2023/03/21 09:54:34;;;;;;;0.40;0.40;;;;;;;13.93;68.44;101333.97;5052164;28;20519;-87
2023/03/21 09:57:14;;;;;;;0.30;0.30;;;;;;;14.00;68.25;101338.25;5039353;28;20033;-88
2023/03/21 09:59:41;;;;;;;1.10;1.10;;;;;;;13.84;66.87;101340.41;5062922;28;20025;-86
2023/03/21 10:02:37;;;;;;;0.30;0.30;;;;;;;14.01;66.98;101334.66;5042544;28;20052;-87
2023/03/21 10:05:16;;;;;;;0.52;0.52;;;;;;;13.94;67.03;101328.59;5049798;28;20064;-86
2023/03/21 10:07:49;;;;;;;0.13;0.13;;;;;;;13.96;67.48;101326.78;5050802;28;20029;-89
2023/03/21 10:10:23;;;;;;;0.20;0.20;;;;;;;13.97;67.48;101317.00;5046247;28;20567;-86
2023/03/21 10:12:54;;;;;;;0.17;0.17;;;;;;;14.08;67.70;101330.91;5052920;28;20028;-87
2023/03/21 10:15:23;;;;;;;0.75;0.75;;;;;;;14.09;67.78;101322.00;5048497;28;20392;-87
2023/03/21 10:18:17;;;;;;;1.05;1.00;;;;;;;14.26;68.03;101312.69;5048864;28;20120;-87
2023/03/21 10:20:44;;;;;;;0.10;0.10;;;;;;;14.03;65.88;101319.50;5048144;28;20782;-87
2023/03/21 10:23:15;;;;;;;0.10;0.10;;;;;;;14.07;66.02;101313.19;5048762;28;20017;-84
2023/03/21 10:25:47;;;;;;;0.00;0.00;;;;;;;14.18;66.04;101316.44;5048011;28;20029;-86
2023/03/21 10:28:20;;;;;;;0.52;0.43;;;;;;;14.31;66.42;101316.09;5048294;28;20036;-86
2023/03/21 10:30:51;;;;;;;0.10;0.10;;;;;;;14.32;66.35;101334.69;5048015;28;20439;-86
2023/03/21 10:33:26;;;;;;;0.20;0.20;;;;;;;14.33;65.92;101330.22;5048675;28;20029;-88
2023/03/21 10:35:58;;;;;;;0.20;0.20;;;;;;;14.37;65.81;101331.91;5048307;28;20025;-86
2023/03/21 10:38:25;;;;;;;0.20;0.20;;;;;;;14.28;65.84;101340.16;5046476;28;20040;-86
2023/03/21 10:40:52;;;;;;;0.65;0.65;;;;;;;14.28;65.83;101334.81;5046562;28;20036;-87
2023/03/21 10:43:33;;;;;;;2.72;0.50;;;;;;;14.23;66.07;101330.50;5042163;28;20587;-86
2023/03/21 10:46:07;;;;;;;0.20;0.20;;;;;;;14.25;66.41;101333.09;5050826;28;20021;-86
2023/03/21 10:48:37;;;;;;;2.35;2.25;;;;;;;14.15;66.79;101337.81;5060191;28;20029;-86
2023/03/21 10:51:07;;;;;;;1.60;1.50;;;;;;;14.01;66.30;101329.34;5065587;28;20037;-87
2023/03/21 10:53:38;;;;;;;1.98;1.80;;;;;;;13.97;66.54;101332.97;5052691;28;20021;-88
2023/03/21 10:56:08;;;;;;;3.10;0.85;;;;;;;13.95;66.51;101326.84;5047412;28;20040;-85
2023/03/21 10:58:41;;;;;;;0.85;0.85;;;;;;;13.95;66.28;101324.16;5034298;28;20508;-88
2023/03/21 11:01:13;;;;;;;0.85;0.85;;;;;;;14.02;66.96;101315.09;5037880;28;20041;-86
2023/03/21 11:03:45;;;;;;;0.20;0.20;;;;;;;14.11;66.97;101317.50;5042567;28;20457;-86
2023/03/21 11:06:31;;;;;;;1.67;1.58;;;;;;;14.21;67.22;101300.34;5030132;28;20014;-87
2023/03/21 11:09:12;;;;;;;0.10;0.10;;;;;;;14.31;67.14;101298.28;5027240;28;20095;-87
2023/03/21 11:11:47;;;;;;;0.57;0.57;;;;;;;14.37;66.81;101283.94;5039766;28;20021;-87
2023/03/21 11:17:28;;;;;;;1.05;1.05;;;;;;;14.60;66.35;101290.38;5102958;27;1281616;-84
2023/03/21 11:19:59;;;;;;;0.22;0.22;;;;;;;14.64;66.56;101292.03;5144033;27;20027;-83
2023/03/21 11:22:29;;;;;;;0.10;0.10;;;;;;;14.63;65.43;101282.25;5142053;27;20410;-83
2023/03/21 11:25:00;;;;;;;1.00;0.68;;;;;;;14.48;63.72;101313.81;5140338;28;20208;-83
2023/03/21 11:27:30;;;;;;;0.28;0.28;;;;;;;14.49;62.93;101299.56;5139428;27;20023;-85
2023/03/21 11:29:58;;;;;;;2.00;0.55;;;;;;;14.51;62.22;101308.38;5142388;27;20552;-85
2023/03/21 11:37:48;;;;;;;0.60;0.60;;;;;;;14.38;60.80;101302.53;5092193;27;20406;-85
2023/03/21 11:40:25;;;;;;;0.75;0.75;;;;;;;14.58;61.38;101303.75;5091642;28;20024;-82
2023/03/21 11:42:56;;;;;;;0.10;0.10;;;;;;;14.51;60.82;101297.72;5096368;28;20081;-85
2023/03/21 11:45:25;;;;;;;0.80;0.65;;;;;;;14.46;60.87;101312.97;5080770;28;20052;-85
2023/03/21 11:47:54;;;;;;;1.35;0.55;;;;;;;14.42;60.19;101314.00;5081920;28;20491;-84
2023/03/21 11:56:25;;;;;;;0.10;0.10;;;;;;;14.56;60.09;101306.44;5077494;28;20372;-84
2023/03/21 11:59:16;;;;;;;0.10;0.10;;;;;;;14.71;59.88;101288.28;5053709;28;20038;-86
2023/03/21 12:01:56;;;;;;;0.13;0.13;;;;;;;14.78;60.07;101300.53;5048326;28;20030;-85
2023/03/21 12:04:50;;;;;;;0.20;0.20;;;;;;;14.93;59.29;101288.50;5046147;28;20041;-87
2023/03/21 12:10:26;;;;;;;0.10;0.10;;;;;;;15.06;59.50;101274.78;5105519;27;20941;-86
2023/03/21 12:13:24;;;;;;;0.43;0.43;;;;;;;15.04;58.96;101280.16;5100086;28;20042;-87
2023/03/21 12:21:58;;;;;;;0.10;0.10;;;;;;;15.42;59.14;101262.00;5114354;27;20373;-85
2023/03/21 12:24:32;;;;;;;0.05;0.05;;;;;;;15.65;59.44;101245.22;5106118;28;20046;-88
2023/03/21 12:30:15;;;;;;;0.13;0.13;;;;;;;15.82;57.17;101260.66;4839381;27;8684622;-86
2023/03/21 12:32:59;;;;;;;0.22;0.22;;;;;;;15.87;56.99;101257.84;5121447;28;20043;-87
2023/03/21 12:38:17;;;;;;;0.98;0.50;;;;;;;15.64;57.50;101262.16;5105481;27;20350;-85